Latest Weather Observations for Bunbury

IDW60801

Issued at 6:05 pm WST Saturday 1 November 2014 (issued every 30 minutes, with the page automatically refreshed every 10 minutes)

About weather observations | Map of weather stations | Latest weather observations for WA | Other Formats
Station Details ID: 009965 Name: BUNBURY Lat: -33.36 Lon: 115.64 Height: 5.2 m
Data from the previous 72 hours. | See also: Recent months at Bunbury
Date/Time
WST
Temp
°C
App
Temp
°C
Dew
Point
Rel
Hum
%
Delta-T
°C
Wind Press
QNH
hPa
Press
MSL
hPa
Rain
since 9 am
mm
Dir
 
Spd
km/h
Gust
km/h
Spd
kts
Gust
kts
01/06:00pm 20.3 19.7 13.5 65 3.9 SW 9 17 5 9 - 1015.0 0.0
01/05:30pm 21.8 21.0 12.9 57 5.1 SW 9 13 5 7 - 1016.8 0.0
01/05:00pm 21.6 20.0 12.7 57 5.1 SW 13 17 7 9 - 1017.2 0.0
01/04:30pm 22.4 21.8 13.5 57 5.1 WSW 9 15 5 8 - 1017.3 0.0
01/04:00pm 22.1 20.3 13.2 57 5.1 WSW 15 22 8 12 - 1017.2 0.0
01/03:30pm 22.5 20.9 13.8 58 5.1 WSW 15 22 8 12 - 1017.3 0.0
01/03:00pm 23.1 22.0 13.0 53 5.8 W 11 15 6 8 - 1017.5 0.0
01/02:30pm 23.7 22.4 13.8 53 5.8 WSW 13 17 7 9 - 1017.7 0.0
01/02:00pm 23.7 22.2 13.0 51 6.2 W 13 15 7 8 - 1018.3 0.0
01/01:30pm 23.7 21.4 13.0 51 6.2 W 17 22 9 12 - 1018.8 0.0
01/01:00pm 26.0 23.4 10.6 38 8.6 WNW 15 22 8 12 - 1019.0 0.0
01/12:30pm 25.9 22.7 7.0 30 9.9 NW 13 19 7 10 - 1016.7 0.0
01/12:00pm 26.1 22.5 6.7 29 10.2 N 15 28 8 15 - 1016.8 0.0
01/11:30am 25.6 21.9 9.4 36 8.9 NE 19 24 10 13 - 1019.9 0.0
01/11:00am 24.8 20.9 9.5 38 8.4 NE 20 30 11 16 - 1020.3 0.0
01/10:30am 23.9 20.1 9.1 39 8.0 ENE 19 26 10 14 - 1021.0 0.0
01/10:00am 22.9 19.6 9.7 43 7.2 ENE 17 26 9 14 - 1021.4 0.0
01/09:30am 21.6 17.6 9.2 45 6.6 ENE 20 26 11 14 - 1021.7 0.0
01/09:00am 20.5 16.6 8.8 47 6.2 NE 19 30 10 16 - 1021.9 0.0
01/08:30am 19.6 16.4 8.6 49 5.7 ENE 15 24 8 13 - 1021.9 0.0
01/08:00am 18.1 15.0 8.7 54 4.9 ENE 15 20 8 11 - 1022.0 0.0
01/07:30am 16.7 13.2 8.7 59 4.1 E 17 22 9 12 - 1019.6 0.0
01/07:00am 15.0 11.0 8.3 64 3.4 E 19 24 10 13 - 1022.0 0.0
01/06:30am 13.8 10.4 7.8 67 3.0 E 15 20 8 11 - 1020.4 0.0
01/06:00am 12.9 10.3 7.6 70 2.6 ENE 11 20 6 11 - 1020.0 0.0
01/05:30am 12.1 8.2 7.2 72 2.4 E 17 30 9 16 - 1021.6 0.0
01/05:00am 12.3 8.1 7.4 72 2.4 E 19 32 10 17 - 1021.1 0.0
01/04:30am 12.4 8.2 7.5 72 2.4 E 19 28 10 15 - 1019.7 0.0
01/04:00am 12.7 8.0 7.6 71 2.5 E 22 32 12 17 - 1020.6 0.0
01/03:30am 12.9 8.7 7.6 70 2.6 E 19 26 10 14 - 1020.6 0.0
01/03:00am 13.1 9.4 7.8 70 2.6 E 17 26 9 14 - 1016.4 0.0
01/02:30am 13.3 9.2 8.0 70 2.6 E 19 32 10 17 - 1020.4 0.0
01/02:00am 13.2 10.3 8.3 72 2.4 E 13 20 7 11 - 1020.3 0.0
01/01:30am 13.3 10.5 8.4 72 2.4 ESE 13 20 7 11 - 1020.3 0.0
01/01:00am 13.1 10.2 8.2 72 2.4 ESE 13 17 7 9 - 1020.4 0.0
01/12:30am 13.6 10.4 8.4 71 2.6 ESE 15 19 8 10 - 1020.6 0.0
01/12:00am 13.7 10.5 8.5 71 2.6 ESE 15 22 8 12 - 1020.9 0.0
 
Date/Time
WST
Temp
°C
App
Temp
°C
Dew
Point
Rel
Hum
%
Delta-T
°C
Wind Press
QNH
hPa
Press
MSL
hPa
Rain
since 9 am
mm
Dir
 
Spd
km/h
Gust
km/h
Spd
kts
Gust
kts
31/11:30pm 13.9 10.8 8.7 71 2.6 SE 15 19 8 10 - 1008.6 0.0
31/11:00pm 13.8 11.1 8.8 72 2.5 SE 13 19 7 10 - 1021.4 0.0
31/10:30pm 14.4 11.8 9.4 72 2.6 SSE 13 19 7 10 - 1021.5 0.0
31/10:00pm 14.6 12.2 10.2 75 2.3 SSE 13 17 7 9 - 1021.5 0.0
31/09:30pm 14.8 12.8 10.2 74 2.4 S 11 17 6 9 - 1021.3 0.0
31/09:00pm 15.4 13.1 10.6 73 2.5 S 13 17 7 9 - 1021.2 0.0
31/08:30pm 15.8 13.7 11.0 73 2.6 S 13 17 7 9 - 1021.2 0.0
31/08:00pm 16.4 14.3 11.1 71 2.8 S 13 15 7 8 - 1021.0 0.0
31/07:30pm 17.2 16.6 11.7 70 3.0 SSW 6 7 3 4 - 1020.5 0.0
31/07:00pm 18.0 17.3 12.0 68 3.3 SSW 7 9 4 5 - 1020.3 0.0
31/06:30pm 18.6 17.9 11.9 65 3.7 SSW 7 9 4 5 - 1020.1 0.0
31/06:00pm 19.5 17.9 11.5 60 4.4 SSW 11 17 6 9 - 1014.3 0.0
31/05:30pm 19.4 16.7 11.7 61 4.2 WSW 17 24 9 13 - 1018.1 0.0
31/05:00pm 20.1 17.2 11.1 56 4.9 WSW 17 24 9 13 - 1019.2 0.0
31/04:30pm 21.5 19.2 11.8 54 5.4 WSW 15 20 8 11 - 1016.1 0.0
31/04:00pm 20.7 17.6 11.6 56 5.0 W 19 28 10 15 - 1018.3 0.0
31/03:30pm 22.6 20.7 9.0 42 7.3 S 9 15 5 8 - 1017.2 0.0
31/03:00pm 21.9 19.5 8.8 43 6.9 SE 11 19 6 10 - 1017.1 0.0
31/02:30pm 21.4 19.6 8.0 42 7.0 S 7 11 4 6 - 1017.5 0.0
31/02:00pm 22.1 19.6 9.6 45 6.7 E 13 20 7 11 - 1017.4 0.0
31/01:30pm 21.9 20.6 9.8 46 6.5 ESE 7 20 4 11 - 1017.2 0.0
31/01:00pm 22.0 19.5 11.1 50 6.0 SE 15 24 8 13 - 1017.3 0.0
31/12:30pm 21.5 19.3 9.4 46 6.5 SE 11 20 6 11 - 1017.2 0.0
31/12:00pm 20.9 18.5 10.1 50 5.8 SE 13 24 7 13 - 1017.1 0.0
31/11:30am 20.3 17.7 9.5 50 5.8 SE 13 28 7 15 - 1017.1 0.0
31/11:00am 20.2 17.3 9.7 51 5.6 SE 15 26 8 14 - 1016.9 0.0
31/10:30am 19.6 16.6 9.2 51 5.5 SSE 15 28 8 15 - 1016.7 0.0
31/10:00am 18.4 15.3 8.9 54 4.9 SSE 15 24 8 13 - 1018.0 0.0
31/09:30am 18.2 14.8 9.3 56 4.7 SSE 17 26 9 14 - 1018.0 0.0
31/09:00am 16.8 12.8 9.0 60 4.0 SSE 20 28 11 15 - 1017.8 1.0
31/08:30am 16.3 12.1 8.3 59 4.1 SSE 20 35 11 19 - 1015.2 1.0
31/08:00am 15.3 11.8 8.8 65 3.3 S 17 24 9 13 - 1014.9 1.0
31/07:30am 14.3 12.5 9.5 73 2.5 SSE 9 17 5 9 - 1014.4 1.0
31/07:00am 13.1 11.6 9.2 77 2.0 SSE 7 11 4 6 - 1017.5 1.0
31/06:30am 11.8 10.8 9.0 83 1.4 S 4 6 2 3 - 1013.5 1.0
31/06:00am 10.0 8.8 7.9 87 1.0 SSE 4 7 2 4 - 1014.3 1.0
31/05:30am 9.2 8.2 7.5 89 0.8 S 2 4 1 2 - 1012.9 1.0
31/05:00am 10.2 9.0 8.0 86 1.1 S 4 6 2 3 - 1012.4 1.0
31/04:30am 11.1 9.4 8.3 83 1.4 S 7 11 4 6 - 1014.8 1.0
31/04:00am 12.0 10.1 9.2 83 1.4 S 9 15 5 8 - 1011.3 1.0
31/03:30am 12.9 10.9 10.3 84 1.3 S 11 20 6 11 - 1014.3 1.0
31/03:00am 13.3 12.0 11.2 87 1.1 S 9 13 5 7 - 1014.9 1.0
31/02:30am 13.9 12.4 11.9 88 1.1 S 11 19 6 10 - 1010.1 1.0
31/02:00am 14.3 13.0 12.5 89 1.0 S 11 17 6 9 - 1009.9 1.0
31/01:30am 14.8 13.3 13.0 89 1.0 SSW 13 19 7 10 - 1009.6 1.0
31/01:00am 15.2 13.0 13.4 89 1.0 SSW 17 30 9 16 - 1009.9 1.0
31/12:30am 15.7 13.1 13.9 89 1.0 SW 20 30 11 16 - 1010.1 1.0
31/12:00am 16.5 14.5 14.0 85 1.4 W 17 24 9 13 - 1012.9 0.0
 
Date/Time
WST
Temp
°C
App
Temp
°C
Dew
Point
Rel
Hum
%
Delta-T
°C
Wind Press
QNH
hPa
Press
MSL
hPa
Rain
since 9 am
mm
Dir
 
Spd
km/h
Gust
km/h
Spd
kts
Gust
kts
30/11:30pm 17.1 15.6 13.2 78 2.2 W 13 26 7 14 - 1010.4 0.0
30/11:00pm 17.6 14.7 12.3 71 2.9 W 19 28 10 15 - 1010.5 0.0
30/10:30pm 17.4 15.3 12.3 72 2.8 W 15 26 8 14 - 1012.9 0.0
30/10:00pm 17.0 14.3 11.7 71 2.9 W 17 28 9 15 - 1013.0 0.0
30/09:30pm 16.9 14.0 12.2 74 2.6 W 19 32 10 17 - 1010.6 0.0
30/09:00pm 16.6 14.1 12.4 76 2.3 W 17 28 9 15 - 1010.6 0.0
30/08:30pm 16.7 13.9 12.7 77 2.2 WSW 19 44 10 24 - 1010.5 0.0
30/08:00pm 17.6 15.0 12.1 70 3.0 W 17 28 9 15 - 1010.3 0.0
30/07:30pm 17.6 15.4 12.1 70 3.0 W 15 22 8 12 - 1010.0 0.0
30/07:00pm 17.6 15.0 11.9 69 3.1 W 17 32 9 17 - 1009.8 0.0
30/06:30pm 17.4 14.8 11.9 70 3.0 WSW 17 28 9 15 - 1012.2 0.0
30/06:00pm 17.4 15.2 12.1 71 2.9 W 15 24 8 13 - 1013.0 0.0
30/05:30pm 17.3 14.6 11.6 69 3.1 W 17 30 9 16 - 1009.0 0.0
30/05:00pm 18.2 15.2 10.6 61 4.1 W 17 28 9 15 - 1008.8 0.0
30/04:30pm 17.5 15.5 12.6 73 2.7 W 15 26 8 14 - 1008.5 0.0
30/04:00pm 17.8 15.1 11.6 67 3.4 W 17 28 9 15 - 1008.3 0.0
30/03:30pm 18.2 15.8 11.5 65 3.7 WSW 15 24 8 13 - 1008.2 0.0
30/03:00pm 18.1 14.8 11.7 66 3.5 WSW 20 28 11 15 - 1008.3 0.0
30/02:30pm 18.7 15.3 11.3 62 4.0 W 20 30 11 16 - 1008.7 0.0
30/02:00pm 19.2 15.9 11.7 62 4.1 W 20 30 11 16 - 1009.1 0.0
30/01:30pm 19.1 15.5 11.7 62 4.1 W 22 32 12 17 - 1009.5 0.0
30/01:00pm 19.8 16.5 11.0 57 4.8 W 19 28 10 15 - 1009.8 0.0
30/12:30pm 19.6 16.2 11.4 59 4.5 W 20 28 11 15 - 1010.3 0.0
30/12:00pm 19.8 17.4 12.6 63 4.0 W 17 24 9 13 - 1010.5 0.0
30/11:30am 19.2 17.0 12.0 63 4.0 W 15 22 8 12 - 1010.7 0.0
30/11:00am 19.0 17.1 11.8 63 4.0 WSW 13 20 7 11 - 1011.1 0.0
30/10:30am 18.3 16.3 11.4 64 3.8 SW 13 20 7 11 - 1011.6 0.0
30/10:00am 17.4 15.5 10.5 64 3.7 WSW 11 19 6 10 - 1012.0 0.0
30/09:30am 17.3 15.8 11.8 70 3.0 SW 11 20 6 11 - 1012.4 0.0
30/09:00am 17.0 15.1 11.9 72 2.8 SSW 13 19 7 10 - 1012.5 0.0
30/08:30am 16.9 15.9 12.4 75 2.5 S 9 13 5 7 - 1012.9 0.0
30/08:00am 16.3 14.1 12.1 76 2.3 S 15 20 8 11 - 1014.2 0.0
30/07:30am 15.4 13.6 12.2 81 1.7 SSW 13 20 7 11 - 1014.4 0.0
30/07:00am 14.9 13.5 12.2 84 1.5 SSW 11 19 6 10 - 1013.1 0.0
30/06:30am 14.8 13.4 12.3 85 1.4 S 11 13 6 7 - 1013.1 0.0
30/06:00am 14.5 13.4 12.0 85 1.4 SSW 9 13 5 7 - 1014.5 0.0
30/05:30am 14.3 13.2 12.0 86 1.2 SSW 9 15 5 8 - 1012.7 0.0
30/05:00am 14.0 13.2 11.7 86 1.2 SSW 7 13 4 7 - 1014.3 0.0
30/04:30am 14.0 13.2 11.7 86 1.2 SSW 7 11 4 6 - 1013.1 0.0
30/04:00am 13.4 12.4 11.1 86 1.2 SSW 7 9 4 5 - 1012.7 0.0
30/03:30am 13.6 12.3 11.1 85 1.3 SSW 9 13 5 7 - 1014.6 0.0
30/03:00am 13.4 12.3 10.8 84 1.4 S 7 9 4 5 - 1013.1 0.0
30/02:30am 13.7 12.3 10.9 83 1.5 S 9 13 5 7 - 1013.1 0.0
30/02:00am 13.9 12.9 11.1 83 1.5 S 7 11 4 6 - 1013.7 0.0
30/01:30am 13.4 12.0 10.8 84 1.4 S 9 13 5 7 - 1014.2 0.0
30/01:00am 13.2 11.7 10.4 83 1.5 S 9 13 5 7 - 1013.3 0.0
30/12:30am 13.4 12.2 10.4 82 1.6 S 7 11 4 6 - 1014.6 0.0
30/12:00am 13.8 11.5 10.4 80 1.8 S 13 19 7 10 - 1015.1 0.0
 
Date/Time
WST
Temp
°C
App
Temp
°C
Dew
Point
Rel
Hum
%
Delta-T
°C
Wind Press
QNH
hPa
Press
MSL
hPa
Rain
since 9 am
mm
Dir
 
Spd
km/h
Gust
km/h
Spd
kts
Gust
kts
29/11:30pm 13.9 12.0 10.5 80 1.8 S 11 17 6 9 - 1015.5 0.0
29/11:00pm 14.2 11.6 10.8 80 1.8 S 15 22 8 12 - 1014.2 0.0
29/10:30pm 14.4 11.9 11.0 80 1.8 S 15 20 8 11 - 1014.1 0.0
29/10:00pm 14.8 12.3 11.2 79 1.9 S 15 20 8 11 - 1015.6 0.0
29/09:30pm 15.5 13.1 11.3 76 2.3 S 15 24 8 13 - 1014.6 0.0
29/09:00pm 16.4 13.3 11.6 73 2.6 S 19 24 10 13 - 1014.4 0.0
29/08:30pm 17.2 14.6 11.9 71 2.9 S 17 28 9 15 - 1014.6 0.0
29/08:00pm 17.9 15.4 12.4 70 3.1 S 17 22 9 12 - 1014.3 0.0
29/07:30pm 19.1 16.7 12.8 67 3.5 S 17 24 9 13 - 1014.2 0.0
29/07:00pm 20.1 18.4 13.6 66 3.7 S 15 20 8 11 - 1014.1 0.0
29/06:30pm 21.4 20.3 14.3 64 4.1 S 13 19 7 10 - 1014.4 0.0

Other Formats:

Comma delimited format used in spreadsheet applications
http://www.bom.gov.au/fwo/IDW60801/IDW60801.94604.axf

JavaScript Object Notation format (JSON) in row-major order
http://www.bom.gov.au/fwo/IDW60801/IDW60801.94604.json